Puunene, Hawaii
Current Conditions -  °F | °C
As of 10:54 AM on Thursday 23 Oct 2014 (Local Time) from PHOG Reporting Station
Scattered Clouds Scattered Clouds  
Wind Chill: 85°   Ceiling: Unl
Heat Index: 89°   Visibility: 10mi
Dew Point: 70°   Wind: 20mph
Humidity: 61%   Direction: 40°NE
Pressure: 30.06"   Gusts: NA
Location:  20.86°N, 156.45°W
Report Text: PHOG 232054Z 04017KT 10SM FEW040 SCT060 29/21 A3006 RMK AO2 SLP184 T02940211 50005
Loading
Personal Weather Stations






























Interactive Weather Map
Tropical Storm Tracking
New forecast layout! Learn more

10-Day Weather Forecast

Advertisements
Track Severe Weather on mobile